createdAt,value
2016-09-28T00:00:08.815Z,58.24
2016-09-28T00:01:08.894Z,58.15
2016-09-28T00:02:08.703Z,58.72
2016-09-28T00:03:08.698Z,58.44
2016-09-28T00:04:09.017Z,57.95
2016-09-28T00:05:08.998Z,57.86
2016-09-28T00:06:08.632Z,57.47
2016-09-28T00:07:08.626Z,57.67
2016-09-28T00:08:08.545Z,57.86
2016-09-28T00:09:08.578Z,57.47
2016-09-28T00:10:08.572Z,56.99
2016-09-28T00:11:08.500Z,56.8
2016-09-28T00:12:08.840Z,57.28
2016-09-28T00:13:08.415Z,56.9
2016-09-28T00:14:08.384Z,56.32
2016-09-28T00:15:08.354Z,56.32
2016-09-28T00:16:08.336Z,56.8
2016-09-28T00:17:08.668Z,56.51
2016-09-28T00:18:08.299Z,56.9
2016-09-28T00:19:08.256Z,56.7
2016-09-28T00:20:22.910Z,56.32
2016-09-28T00:21:08.573Z,56.22
2016-09-28T00:22:08.163Z,56.7
2016-09-28T00:23:08.179Z,56.6
2016-09-28T00:24:08.137Z,56.8
2016-09-28T00:25:08.106Z,56.32
2016-09-28T00:26:08.467Z,56.22
2016-09-28T00:28:08.076Z,56.1
2016-09-28T00:29:22.657Z,56.38
2016-09-28T00:30:07.989Z,56.48
2016-09-28T00:31:07.915Z,56.99
2016-09-28T00:32:07.928Z,56.96
2016-09-28T00:33:07.887Z,56.6
2016-09-28T00:34:07.863Z,56.6
2016-09-28T00:35:08.213Z,55.93
2016-09-28T00:36:07.858Z,56.32
2016-09-28T00:37:07.791Z,55.65
2016-09-28T00:38:07.781Z,56.22
2016-09-28T00:39:08.017Z,55.65
2016-09-28T00:40:07.700Z,56.48
2016-09-28T00:41:07.699Z,56.03
2016-09-28T00:42:22.369Z,55.45
2016-09-28T00:43:07.621Z,55.71
2016-09-28T00:44:07.591Z,56.67
2016-09-28T00:45:07.546Z,56.03
2016-09-28T00:46:07.731Z,56.22
2016-09-28T00:47:07.934Z,56.12
2016-09-28T00:48:07.474Z,56.41
2016-09-28T00:49:07.494Z,56.41
2016-09-28T00:50:07.443Z,56.22
2016-09-28T00:51:07.777Z,55.35
2016-09-28T00:52:07.866Z,55.45
2016-09-28T00:53:07.367Z,55.74
2016-09-28T00:54:07.321Z,56.03
2016-09-28T00:55:07.284Z,56.22
2016-09-28T00:56:07.822Z,55.45
2016-09-28T00:57:07.249Z,56.03
2016-09-28T00:58:07.227Z,55.93
2016-09-28T00:59:07.173Z,55.93
2016-09-28T01:00:08.329Z,55.07
2016-09-28T01:01:07.193Z,54.68
2016-09-28T01:02:07.118Z,54.3
2016-09-28T01:03:07.117Z,54.39
2016-09-28T01:04:07.059Z,54.2
2016-09-28T01:05:07.234Z,54.3
2016-09-28T01:06:07.008Z,54.87
2016-09-28T01:07:06.951Z,54.1
2016-09-28T01:08:06.932Z,53.88
2016-09-28T01:09:06.974Z,54.39
2016-09-28T01:10:07.034Z,53.78
2016-09-28T01:11:06.865Z,54.08
2016-09-28T01:12:06.863Z,53.72
2016-09-28T01:13:06.814Z,53.53
2016-09-28T01:14:06.805Z,53.72
2016-09-28T01:15:07.232Z,53.98
2016-09-28T01:16:06.725Z,53.98
2016-09-28T01:17:06.692Z,53.5
2016-09-28T01:18:06.779Z,53.59
2016-09-28T01:19:06.631Z,53.69
2016-09-28T01:20:06.632Z,53.59
2016-09-28T01:21:06.609Z,53.78
2016-09-28T01:22:06.579Z,54.05
2016-09-28T01:24:06.511Z,54.05
2016-09-28T01:25:06.485Z,53.66
2016-09-28T01:26:06.465Z,53.88
2016-09-28T01:27:21.573Z,53.47
2016-09-28T01:28:06.415Z,53.57
2016-09-28T01:29:06.393Z,53.66
2016-09-28T01:30:06.363Z,53.57
2016-09-28T01:31:06.391Z,53.02
2016-09-28T01:32:06.687Z,52.83
2016-09-28T01:33:06.274Z,52.54
2016-09-28T01:35:06.218Z,53.69
2016-09-28T01:36:06.708Z,52.54
2016-09-28T01:37:06.542Z,52.15
2016-09-28T01:38:06.131Z,52.34
2016-09-28T01:39:06.120Z,52.34
2016-09-28T01:40:06.096Z,52.15
2016-09-28T01:41:06.480Z,52.7
2016-09-28T01:42:06.231Z,52.63
2016-09-28T01:43:06.002Z,52.7
2016-09-28T01:44:05.973Z,52.7
2016-09-28T01:45:06.438Z,53.25
2016-09-28T01:46:05.941Z,53.06
2016-09-28T01:47:05.891Z,53.09
2016-09-28T01:48:06.266Z,53.66
2016-09-28T01:49:05.942Z,53.57
2016-09-28T01:50:05.823Z,52.89
2016-09-28T01:51:05.872Z,52.12
2016-09-28T01:52:05.756Z,52.61
2016-09-28T01:53:05.743Z,52.8
2016-09-28T01:54:05.779Z,52.61
2016-09-28T01:55:05.695Z,52.7
2016-09-28T01:56:05.663Z,52.61
2016-09-28T01:57:05.631Z,52.92
2016-09-28T01:58:05.592Z,52.22
2016-09-28T01:59:05.677Z,52.22
2016-09-28T02:00:05.551Z,52.34
2016-09-28T02:01:05.534Z,52.12
2016-09-28T02:02:05.515Z,52.06
2016-09-28T02:03:05.465Z,50.81
2016-09-28T02:04:05.442Z,50.81
2016-09-28T02:05:05.407Z,50.81
2016-09-28T02:06:05.385Z,50.9
2016-09-28T02:07:05.364Z,50.99
2016-09-28T02:08:05.333Z,51.29
2016-09-28T02:09:05.448Z,51.29
2016-09-28T02:10:05.663Z,50.71
2016-09-28T02:11:05.253Z,51.38
2016-09-28T02:12:05.250Z,51.29
2016-09-28T02:13:05.185Z,50.32
2016-09-28T02:14:05.239Z,50.81
2016-09-28T02:15:05.218Z,50.99
2016-09-28T02:16:05.139Z,50.13
2016-09-28T02:17:05.088Z,49.74
2016-09-28T02:18:19.742Z,49.46
2016-09-28T02:19:05.472Z,49.65
2016-09-28T02:20:05.048Z,50.13
2016-09-28T02:21:04.998Z,50.13
2016-09-28T02:22:05.452Z,50.06
2016-09-28T02:23:04.941Z,49.07
2016-09-28T02:24:04.937Z,49.38
2016-09-28T02:25:05.250Z,49.19
2016-09-28T02:26:04.900Z,49.77
2016-09-28T02:27:04.822Z,48.61
2016-09-28T02:28:05.164Z,49.19
2016-09-28T02:29:04.779Z,48.52
2016-09-28T02:30:04.740Z,48.9
2016-09-28T02:31:05.101Z,49.19
2016-09-28T02:32:05.194Z,48.52
2016-09-28T02:33:19.356Z,48.81
2016-09-28T02:34:04.625Z,48.81
2016-09-28T02:35:19.293Z,48.61
2016-09-28T02:36:04.981Z,48.71
2016-09-28T02:37:04.557Z,48.81
2016-09-28T02:38:04.580Z,49.29
2016-09-28T02:39:04.497Z,49.29
2016-09-28T02:40:04.502Z,49
2016-09-28T02:41:04.481Z,48.81
2016-09-28T02:42:04.425Z,48.03
2016-09-28T02:43:04.996Z,47.65
2016-09-28T02:44:04.366Z,48.59
2016-09-28T02:45:04.339Z,48.49
2016-09-28T02:46:19.347Z,49.17
2016-09-28T02:47:04.695Z,49.07
2016-09-28T02:48:18.943Z,48.97
2016-09-28T02:49:04.235Z,49
2016-09-28T02:50:04.204Z,48.69
2016-09-28T02:51:04.179Z,48.43
2016-09-28T02:52:04.148Z,48.23
2016-09-28T02:53:04.137Z,48.52
2016-09-28T02:54:04.495Z,49.19
2016-09-28T02:55:04.068Z,49.58
2016-09-28T02:56:04.037Z,49.58
2016-09-28T02:57:04.512Z,49.48
2016-09-28T02:58:04.083Z,49.48
2016-09-28T02:59:04.007Z,48.9
2016-09-28T03:00:04.386Z,48.52
2016-09-28T03:01:03.918Z,48.23
2016-09-28T03:02:03.892Z,48.23
2016-09-28T03:03:04.258Z,47.65
2016-09-28T03:04:04.207Z,48.23
2016-09-28T03:05:03.822Z,48.4
2016-09-28T03:06:03.821Z,48.11
2016-09-28T03:07:03.748Z,48.03
2016-09-28T03:08:03.739Z,48.3
2016-09-28T03:09:03.707Z,48.11
2016-09-28T03:10:03.698Z,48.21
2016-09-28T03:11:03.704Z,48.52
2016-09-28T03:12:03.613Z,48.11
2016-09-28T03:13:03.599Z,47.75
2016-09-28T03:14:03.568Z,47.56
2016-09-28T03:15:18.217Z,47.65
2016-09-28T03:16:03.571Z,47.72
2016-09-28T03:17:03.537Z,47.72
2016-09-28T03:18:03.564Z,48.3
2016-09-28T03:19:03.440Z,48.21
2016-09-28T03:20:03.435Z,48.11
2016-09-28T03:21:03.385Z,48.4
2016-09-28T03:22:18.403Z,48.79
2016-09-28T03:23:03.326Z,48.88
2016-09-28T03:24:03.310Z,48.88
2016-09-28T03:25:03.287Z,48.97
2016-09-28T03:27:03.246Z,48.95
2016-09-28T03:28:03.181Z,49.27
2016-09-28T03:29:03.156Z,49.17
2016-09-28T03:30:03.540Z,49.17
2016-09-28T03:31:03.100Z,48.69
2016-09-28T03:32:03.078Z,48.49
2016-09-28T03:33:03.069Z,48.69
2016-09-28T03:34:03.042Z,49.17
2016-09-28T03:35:03.154Z,49.46
2016-09-28T03:36:03.043Z,49.72
2016-09-28T03:37:02.974Z,49.43
2016-09-28T03:38:02.913Z,49.43
2016-09-28T03:39:02.898Z,49.91
2016-09-28T03:40:17.843Z,49.65
2016-09-28T03:41:02.850Z,49.74
2016-09-28T03:42:02.816Z,49.74
2016-09-28T03:43:02.805Z,49.91
2016-09-28T03:44:02.760Z,50.32
2016-09-28T03:45:02.773Z,50.2
2016-09-28T03:46:02.786Z,49.82
2016-09-28T03:47:02.747Z,49.91
2016-09-28T03:48:02.736Z,49.82
2016-09-28T03:49:03.022Z,50.01
2016-09-28T03:50:02.654Z,50.01
2016-09-28T03:51:02.634Z,50.01
2016-09-28T03:52:02.612Z,50.01
2016-09-28T03:53:02.624Z,49.91
2016-09-28T03:54:02.571Z,50.1
2016-09-28T03:55:02.565Z,50.1
2016-09-28T03:56:02.499Z,50.01
2016-09-28T03:57:02.477Z,50.97
2016-09-28T03:58:02.426Z,50.78
2016-09-28T03:59:02.426Z,51.14
2016-09-28T04:00:15.037Z,51.07
2016-09-28T04:01:02.335Z,50.68
2016-09-28T04:03:02.301Z,50.87
2016-09-28T04:04:02.237Z,50.78
2016-09-28T04:05:02.742Z,51.07
2016-09-28T04:06:02.176Z,50.78
2016-09-28T04:07:02.135Z,50.68
2016-09-28T04:08:16.792Z,50.87
2016-09-28T04:09:02.072Z,50.3
2016-09-28T04:10:02.054Z,50.32
2016-09-28T04:11:02.093Z,50.13
2016-09-28T04:12:02.629Z,50.04
2016-09-28T04:13:02.375Z,50.04
2016-09-28T04:14:01.957Z,50.04
2016-09-28T04:15:01.920Z,49.74
2016-09-28T04:16:02.292Z,49.65
2016-09-28T04:17:01.919Z,49.74
2016-09-28T04:18:01.833Z,49.74
2016-09-28T04:19:01.866Z,50.23
2016-09-28T04:20:01.789Z,50.13
2016-09-28T04:21:01.760Z,49.94
2016-09-28T04:22:01.738Z,50.42
2016-09-28T04:23:01.790Z,50.13
2016-09-28T04:24:01.725Z,49.94
2016-09-28T04:25:01.695Z,50.04
2016-09-28T04:26:01.627Z,50.23
2016-09-28T04:28:02.013Z,50.23
2016-09-28T04:29:02.110Z,50.32
2016-09-28T04:30:16.202Z,51.19
2016-09-28T04:31:01.505Z,50.71
2016-09-28T04:32:01.788Z,50.32
2016-09-28T04:33:01.441Z,50.13
2016-09-28T04:34:01.442Z,50.23
2016-09-28T04:35:01.795Z,50.99
2016-09-28T04:36:01.360Z,50.71
2016-09-28T04:37:01.454Z,50.61
2016-09-28T04:38:01.311Z,50.81
2016-09-28T04:39:01.272Z,50.61
2016-09-28T04:40:01.260Z,50.23
2016-09-28T04:41:01.225Z,49.94
2016-09-28T04:42:01.193Z,50.13
2016-09-28T04:43:01.747Z,50.13
2016-09-28T04:44:01.174Z,50.51
2016-09-28T04:45:01.111Z,50.04
2016-09-28T04:46:01.113Z,50.32
2016-09-28T04:47:01.357Z,50.61
2016-09-28T04:48:01.048Z,50.9
2016-09-28T04:49:01.014Z,50.71
2016-09-28T04:50:01.061Z,50.9
2016-09-28T04:51:00.969Z,50.9
2016-09-28T04:52:15.620Z,50.71
2016-09-28T04:53:00.912Z,50.99
2016-09-28T04:54:15.554Z,50.71
2016-09-28T04:55:00.861Z,50.99
2016-09-28T04:56:00.858Z,50.81
2016-09-28T04:57:00.805Z,50.81
2016-09-28T04:58:00.854Z,50.23
2016-09-28T04:59:00.736Z,50.32
2016-09-28T05:00:01.102Z,50.81
2016-09-28T05:01:01.299Z,50.71
2016-09-28T05:02:00.674Z,50.71
2016-09-28T05:03:00.686Z,50.71
2016-09-28T05:04:00.602Z,50.81
2016-09-28T05:05:00.979Z,51.09
2016-09-28T05:06:00.961Z,50.99
2016-09-28T05:07:00.568Z,50.71
2016-09-28T05:08:00.504Z,51.29
2016-09-28T05:09:00.560Z,50.71
2016-09-28T05:10:00.837Z,51.07
2016-09-28T05:11:00.822Z,50.71
2016-09-28T05:12:00.909Z,50.9
2016-09-28T05:13:00.817Z,50.9
2016-09-28T05:14:00.324Z,50.61
2016-09-28T05:15:00.712Z,50.9
2016-09-28T05:16:00.295Z,50.81
2016-09-28T05:17:00.661Z,50.9
2016-09-28T05:18:00.298Z,50.99
2016-09-28T05:19:00.617Z,51.67
2016-09-28T05:20:00.590Z,51.29
2016-09-28T05:21:00.541Z,50.81
2016-09-28T05:22:00.257Z,50.81
2016-09-28T05:23:00.526Z,51.09
2016-09-28T05:25:00.424Z,50.13
2016-09-28T05:26:00.373Z,50.71
2016-09-28T05:27:00.598Z,50.61
2016-09-28T05:27:59.983Z,50.9
2016-09-28T05:28:59.950Z,50.99
2016-09-28T05:30:00.496Z,51.57
2016-09-28T05:31:14.571Z,51.93
2016-09-28T05:32:00.283Z,52.06
2016-09-28T05:32:59.850Z,51.96
2016-09-28T05:33:59.809Z,52.25
2016-09-28T05:35:00.653Z,52.12
2016-09-28T05:35:59.749Z,51.86
2016-09-28T05:36:59.733Z,51.67
2016-09-28T05:37:59.703Z,51.96
2016-09-28T05:38:59.694Z,52.73
2016-09-28T05:40:00.067Z,52.44
2016-09-28T05:41:00.402Z,52.12
2016-09-28T05:41:59.578Z,52.44
2016-09-28T05:42:59.567Z,52.25
2016-09-28T05:43:59.565Z,52.25
2016-09-28T05:45:14.217Z,51.19
2016-09-28T05:45:59.869Z,51.38
2016-09-28T05:49:40.202Z,51.76
2016-09-28T05:51:39.735Z,51.29
2016-09-28T05:52:40.064Z,50.83
2016-09-28T05:53:39.851Z,51.21
2016-09-28T05:54:39.718Z,50.73
2016-09-28T05:55:39.668Z,50.25
2016-09-28T05:56:39.602Z,50.25
2016-09-28T05:57:39.868Z,50.76
2016-09-28T05:58:39.655Z,51.12
2016-09-28T05:59:39.530Z,51.41
2016-09-28T06:00:39.540Z,51.31
2016-09-28T06:01:54.166Z,51.5
2016-09-28T06:02:40.105Z,51.98
2016-09-28T06:03:39.914Z,51.21
2016-09-28T06:04:39.770Z,51.21
2016-09-28T06:05:39.732Z,50.83
2016-09-28T06:06:39.745Z,51.02
2016-09-28T06:07:39.715Z,51.79
2016-09-28T06:08:39.671Z,52.08
2016-09-28T06:09:39.318Z,52.15
2016-09-28T06:10:39.737Z,52.34
2016-09-28T06:11:39.282Z,51.31
2016-09-28T06:12:39.856Z,51.05
2016-09-28T06:13:39.217Z,51.05
2016-09-28T06:14:39.137Z,51.14
2016-09-28T06:15:39.137Z,51.41
2016-09-28T06:16:39.081Z,52.08
2016-09-28T06:17:39.062Z,52.18
2016-09-28T06:18:39.141Z,52.18
2016-09-28T06:19:39.365Z,51.43
2016-09-28T06:20:38.987Z,50.85
2016-09-28T06:21:39.421Z,51.05
2016-09-28T06:22:39.301Z,52.4
2016-09-28T06:23:39.325Z,52.2
2016-09-28T06:24:39.753Z,52.27
2016-09-28T06:25:38.900Z,52.27
2016-09-28T06:26:38.813Z,52.75
2016-09-28T06:27:38.797Z,52.56
2016-09-28T06:28:53.442Z,52.56
2016-09-28T06:29:38.734Z,52.59
2016-09-28T06:30:38.878Z,52.97
2016-09-28T06:31:38.700Z,52.47
2016-09-28T06:32:39.060Z,53.23
2016-09-28T06:33:38.679Z,52.95
2016-09-28T06:34:38.687Z,53.53
2016-09-28T06:35:38.597Z,53.91
2016-09-28T06:36:38.572Z,54.39
2016-09-28T06:37:38.573Z,54.3
2016-09-28T06:39:38.899Z,54.39
2016-09-28T06:40:38.685Z,54.97
2016-09-28T06:42:39.077Z,55.65
2016-09-28T06:43:38.431Z,54.39
2016-09-28T06:44:38.829Z,55.26
2016-09-28T06:45:38.728Z,55.19
2016-09-28T06:46:38.655Z,55.35
2016-09-28T06:47:38.276Z,55.83
2016-09-28T06:48:38.235Z,55.93
2016-09-28T06:49:38.202Z,55.65
2016-09-28T06:50:38.574Z,56.03
2016-09-28T06:51:38.170Z,55.83
2016-09-28T06:52:38.534Z,55.87
2016-09-28T06:53:38.533Z,55.96
2016-09-28T06:54:38.075Z,55.87
2016-09-28T06:55:38.617Z,55.77
2016-09-28T06:56:38.339Z,56.15
2016-09-28T06:57:38.016Z,56.54
2016-09-28T06:58:37.979Z,56.51
2016-09-28T06:59:38.463Z,56.25
2016-09-28T07:00:37.905Z,57.12
2016-09-28T07:01:37.985Z,57.21
2016-09-28T07:02:37.861Z,57.02
2016-09-28T07:04:37.791Z,57.02
2016-09-28T07:05:37.811Z,57.02
2016-09-28T07:06:37.898Z,56.82
2016-09-28T07:07:37.889Z,57.6
2016-09-28T07:08:37.817Z,57.21
2016-09-28T07:09:37.663Z,57.5
2016-09-28T07:10:37.856Z,57.98
2016-09-28T07:11:37.817Z,57.69
2016-09-28T07:12:37.970Z,57.89
2016-09-28T07:13:52.231Z,57.79
2016-09-28T07:14:52.196Z,58.95
2016-09-28T07:15:52.487Z,57.79
2016-09-28T07:16:37.538Z,57.79
2016-09-28T07:17:37.451Z,57.89
2016-09-28T07:18:52.115Z,58.08
2016-09-28T07:19:37.885Z,58.47
2016-09-28T07:20:37.516Z,58.17
2016-09-28T07:21:37.444Z,58.65
2016-09-28T07:22:37.643Z,59.04
2016-09-28T07:23:37.286Z,59.72
2016-09-28T07:24:37.255Z,59.52
2016-09-28T07:26:51.935Z,59.23
2016-09-28T07:27:37.240Z,59.23
2016-09-28T07:28:51.833Z,59.23
2016-09-28T07:29:37.151Z,59.72
2016-09-28T07:30:37.589Z,59.43
2016-09-28T07:31:37.287Z,59.91
2016-09-28T07:32:37.075Z,60.87
2016-09-28T07:33:37.430Z,61.13
2016-09-28T07:34:37.008Z,60.77
2016-09-28T07:35:37.166Z,61.16
2016-09-28T07:36:36.987Z,61.22
2016-09-28T07:37:36.945Z,61.65
2016-09-28T07:41:38.708Z,61.9
2016-09-28T07:42:23.108Z,61.52
2016-09-28T07:43:23.044Z,61.8
2016-09-28T07:44:22.996Z,61.65
2016-09-28T07:45:23.365Z,62.03
2016-09-28T07:46:22.974Z,61.65
2016-09-28T07:47:22.942Z,61.65
2016-09-28T07:48:22.903Z,61.65
2016-09-28T07:49:22.886Z,61.45
2016-09-28T07:50:22.940Z,61.55
2016-09-28T07:51:22.817Z,61.65
2016-09-28T07:52:22.799Z,61.45
2016-09-28T07:53:22.760Z,61.65
2016-09-28T07:54:37.455Z,61.35
2016-09-28T07:55:22.734Z,61.55
2016-09-28T07:56:22.686Z,61.25
2016-09-28T07:57:22.661Z,60.87
2016-09-28T07:58:22.638Z,61.65
2016-09-28T07:59:22.636Z,61.93
2016-09-28T08:00:22.644Z,62.7
2016-09-28T08:01:22.551Z,63.09
2016-09-28T08:02:22.522Z,63.06
2016-09-28T08:03:22.503Z,63.18
2016-09-28T08:04:22.510Z,63.18
2016-09-28T08:05:22.445Z,63.09
2016-09-28T08:06:22.436Z,63.18
2016-09-28T08:07:22.377Z,63.57
2016-09-28T08:08:22.345Z,63.38
2016-09-28T08:09:22.368Z,63.64
2016-09-28T08:10:22.333Z,63.76
2016-09-28T08:11:22.276Z,63.67
2016-09-28T08:12:22.263Z,64.15
2016-09-28T08:13:22.412Z,63.76
2016-09-28T08:14:22.302Z,63.85
2016-09-28T08:15:22.160Z,63.85
2016-09-28T08:16:22.158Z,64.05
2016-09-28T08:17:22.157Z,65.11
2016-09-28T08:18:22.084Z,65.11
2016-09-28T08:19:22.057Z,63.76
2016-09-28T08:20:22.055Z,64.18
2016-09-28T08:21:22.036Z,64.18
2016-09-28T08:22:21.992Z,64.08
2016-09-28T08:23:21.987Z,63.98
2016-09-28T08:24:21.927Z,64.66
2016-09-28T08:25:21.909Z,65.01
2016-09-28T08:26:21.875Z,64.47
2016-09-28T08:27:21.840Z,63.89
2016-09-28T08:28:21.822Z,64.76
2016-09-28T08:29:21.786Z,64.76
2016-09-28T08:30:21.791Z,64.28
2016-09-28T08:31:21.803Z,63.79
2016-09-28T08:32:21.753Z,64.28
2016-09-28T08:34:21.663Z,63.6
2016-09-28T08:35:21.627Z,63.89
2016-09-28T08:36:21.617Z,64.28
2016-09-28T08:37:21.702Z,63.79
2016-09-28T08:38:21.549Z,63.79
2016-09-28T08:39:21.533Z,63.6
2016-09-28T08:40:21.501Z,64.18
2016-09-28T08:41:21.469Z,63.89
2016-09-28T08:42:21.447Z,64.18
2016-09-28T08:43:22.080Z,64.28
2016-09-28T08:44:21.385Z,64.18
2016-09-28T08:45:21.705Z,63.79
2016-09-28T08:46:21.342Z,64.86
2016-09-28T08:47:21.319Z,64.56
2016-09-28T08:48:21.318Z,64.95
2016-09-28T08:49:21.295Z,65.5
2016-09-28T08:50:21.246Z,65.3
2016-09-28T08:51:21.233Z,66.75
2016-09-28T08:52:21.206Z,66.07
2016-09-28T08:53:21.158Z,66.27
2016-09-28T08:54:26.164Z,66.65
2016-09-28T08:55:21.106Z,67.23
2016-09-28T08:56:21.087Z,66.36
2016-09-28T08:57:21.072Z,66.46
2016-09-28T08:58:21.046Z,66.27
2016-09-28T08:59:21.053Z,66.36
2016-09-28T09:00:21.615Z,66.46
2016-09-28T09:01:20.962Z,65.91
2016-09-28T09:02:20.932Z,65.91
2016-09-28T09:03:20.901Z,65.63
2016-09-28T09:04:20.889Z,66.11
2016-09-28T09:06:20.943Z,65.66
2016-09-28T09:07:20.792Z,65.53
2016-09-28T09:08:20.823Z,65.81
2016-09-28T09:09:20.767Z,65.17
2016-09-28T09:10:20.699Z,65.56
2016-09-28T09:11:20.670Z,65.63
2016-09-28T09:12:20.673Z,65.56
2016-09-28T09:13:20.625Z,65.66
2016-09-28T09:15:20.940Z,65.17
2016-09-28T09:16:20.700Z,65.75
2016-09-28T09:17:20.544Z,65.27
2016-09-28T09:18:20.516Z,65.47
2016-09-28T09:19:20.473Z,65.75
2016-09-28T09:20:20.541Z,65.85
2016-09-28T09:21:20.445Z,65.47
2016-09-28T09:22:20.416Z,65.95
2016-09-28T09:23:20.422Z,66.52
2016-09-28T09:24:20.367Z,67.1
2016-09-28T09:25:20.332Z,66.49
2016-09-28T09:26:20.344Z,66.33
2016-09-28T09:27:20.260Z,66.88
2016-09-28T09:28:20.231Z,66.97
2016-09-28T09:29:20.227Z,67.16
2016-09-28T09:30:20.177Z,67.65
2016-09-28T09:31:20.254Z,68.13
2016-09-28T09:32:20.136Z,67.84
2016-09-28T09:33:20.119Z,67.55
2016-09-28T09:34:20.095Z,68.23
2016-09-28T09:35:20.091Z,68.58
2016-09-28T09:36:20.057Z,68.32
2016-09-28T09:37:19.991Z,68.32
2016-09-28T09:38:19.965Z,67.94
2016-09-28T09:39:19.942Z,67.94
2016-09-28T09:40:19.953Z,67.84
2016-09-28T09:41:19.978Z,67.94
2016-09-28T09:42:19.892Z,67.49
2016-09-28T09:43:19.834Z,66.91
2016-09-28T09:44:19.844Z,67
2016-09-28T09:45:19.825Z,67
2016-09-28T09:46:19.773Z,66.91
2016-09-28T09:47:19.776Z,66.62
2016-09-28T09:48:19.730Z,66.85
2016-09-28T09:49:20.063Z,66.43
2016-09-28T09:50:20.001Z,65.4
2016-09-28T09:51:20.221Z,65.88
2016-09-28T09:52:20.466Z,65.01
2016-09-28T09:53:20.026Z,64.76
2016-09-28T09:54:20.216Z,64.66
2016-09-28T09:55:19.758Z,65.14
2016-09-28T09:56:19.755Z,65.14
2016-09-28T09:57:19.715Z,65.14
2016-09-28T09:58:19.459Z,65.53
2016-09-28T09:59:19.428Z,65.3
2016-09-28T10:00:34.104Z,65.3
2016-09-28T10:01:19.375Z,64.82
2016-09-28T10:02:34.054Z,65.78
2016-09-28T10:03:19.314Z,65.88
2016-09-28T10:04:19.278Z,65.59
2016-09-28T10:05:19.262Z,65.69
2016-09-28T10:07:19.204Z,66.27
2016-09-28T10:08:19.228Z,66.56
2016-09-28T10:09:19.180Z,66.75
2016-09-28T10:10:19.154Z,66.75
2016-09-28T10:11:19.119Z,66.52
2016-09-28T10:12:19.170Z,66.33
2016-09-28T10:13:19.042Z,66.85
2016-09-28T10:14:19.036Z,67.58
2016-09-28T10:15:19.040Z,67.2
2016-09-28T10:16:18.998Z,67.4
2016-09-28T10:17:18.949Z,67.4
2016-09-28T10:18:18.933Z,67.49
2016-09-28T10:19:18.914Z,67.1
2016-09-28T10:20:18.881Z,67.4
2016-09-28T10:21:18.854Z,67.4
2016-09-28T10:22:18.876Z,67.49
2016-09-28T10:23:18.785Z,66.91
2016-09-28T10:24:18.865Z,67.1
2016-09-28T10:25:18.846Z,66.72
2016-09-28T10:26:18.733Z,67
2016-09-28T10:27:18.707Z,66.33
2016-09-28T10:28:18.653Z,66.82
2016-09-28T10:29:18.658Z,66.52
2016-09-28T10:30:18.595Z,66.43
2016-09-28T10:31:19.089Z,66.46
2016-09-28T10:32:18.573Z,66.56
2016-09-28T10:33:18.517Z,66.75
2016-09-28T10:34:18.500Z,66.75
2016-09-28T10:35:18.466Z,67.04
2016-09-28T10:36:18.461Z,66.75
2016-09-28T10:37:18.454Z,66.94
2016-09-28T10:38:18.985Z,66.91
2016-09-28T10:42:05.178Z,67.3
2016-09-28T10:43:05.119Z,67.04
2016-09-28T10:44:19.337Z,66.66
2016-09-28T10:45:19.303Z,66.08
2016-09-28T10:46:04.875Z,66.36
2016-09-28T10:47:04.742Z,67.52
2016-09-28T10:48:05.035Z,66.75
2016-09-28T10:49:05.024Z,66.69
2016-09-28T10:50:04.642Z,66.3
2016-09-28T10:51:04.606Z,65.53
2016-09-28T10:52:04.909Z,65.82
2016-09-28T10:53:05.337Z,65.91
2016-09-28T10:54:05.182Z,66.4
2016-09-28T10:55:04.553Z,66.88
2016-09-28T10:56:04.377Z,65.72
2016-09-28T10:57:04.365Z,65.43
2016-09-28T10:58:04.308Z,65.91
2016-09-28T10:59:05.533Z,65.91
2016-09-28T11:00:04.292Z,65.34
2016-09-28T11:01:04.314Z,65.43
2016-09-28T11:02:04.503Z,65.05
2016-09-28T11:03:04.789Z,64.95
2016-09-28T11:04:04.854Z,63.89
2016-09-28T11:05:04.761Z,64.21
2016-09-28T11:06:04.329Z,65.08
2016-09-28T11:07:04.339Z,64.37
2016-09-28T11:08:04.349Z,63.82
2016-09-28T11:10:04.547Z,63.34
2016-09-28T11:11:19.084Z,63.43
2016-09-28T11:12:04.633Z,63.24
2016-09-28T11:13:04.185Z,63.43
2016-09-28T11:14:04.431Z,63.05
2016-09-28T11:15:04.440Z,63.05
2016-09-28T11:17:04.193Z,63.34
2016-09-28T11:18:04.008Z,63.24
2016-09-28T11:21:03.730Z,62.02
2016-09-28T11:25:04.043Z,62.86
2016-09-28T11:26:04.493Z,62.95
2016-09-28T11:27:18.273Z,63.05
2016-09-28T11:28:03.557Z,63.24
2016-09-28T11:29:18.533Z,62.66
2016-09-28T11:30:04.004Z,62.5
2016-09-28T11:31:03.459Z,62.6
2016-09-28T11:32:03.432Z,62.31
2016-09-28T11:33:03.520Z,61.63
2016-09-28T11:34:04.871Z,61.83
2016-09-28T11:37:26.533Z,61.92
2016-09-28T11:38:26.934Z,61.83
2016-09-28T11:39:26.567Z,61.27
2016-09-28T11:40:26.433Z,61.95
2016-09-28T11:41:26.602Z,61.18
2016-09-28T11:42:26.528Z,61.47
2016-09-28T11:43:26.460Z,61.18
2016-09-28T11:44:26.322Z,61.47
2016-09-28T11:45:26.671Z,61.37
2016-09-28T11:46:26.445Z,60.69
2016-09-28T11:47:26.711Z,60.79
2016-09-28T11:48:26.183Z,60.99
2016-09-28T11:49:40.834Z,60.6
2016-09-28T11:50:26.698Z,60.5
2016-09-28T11:51:26.233Z,60.6
2016-09-28T11:52:26.124Z,60.02
2016-09-28T11:53:26.050Z,60.21
2016-09-28T11:54:26.053Z,60.21
2016-09-28T11:55:26.269Z,59.83
2016-09-28T11:56:26.379Z,59.25
2016-09-28T11:57:26.048Z,60.11
2016-09-28T11:58:26.088Z,60.11
2016-09-28T11:59:25.919Z,59.05
2016-09-28T12:00:26.628Z,59.05
2016-09-28T12:01:26.058Z,59.83
2016-09-28T12:02:26.078Z,60.11
2016-09-28T12:03:28.713Z,60.11
2016-09-28T12:04:25.866Z,59.05
2016-09-28T12:05:40.410Z,60.09
2016-09-28T12:06:25.754Z,59.83
2016-09-28T12:07:25.739Z,59.25
2016-09-28T12:08:26.151Z,58.89
2016-09-28T12:09:25.669Z,58.89
2016-09-28T12:10:26.061Z,58.6
2016-09-28T12:11:26.219Z,58.7
2016-09-28T12:12:25.549Z,58.89
2016-09-28T12:13:26.038Z,58.6
2016-09-28T12:14:25.525Z,58.02
2016-09-28T12:15:25.668Z,58.14
2016-09-28T12:16:25.566Z,58.04
2016-09-28T12:17:25.456Z,57.95
2016-09-28T12:18:25.985Z,57.37
2016-09-28T12:19:40.048Z,58.34
2016-09-28T12:20:25.869Z,58.6
2016-09-28T12:21:26.660Z,58.89
2016-09-28T12:22:25.398Z,58.89
2016-09-28T12:23:25.309Z,58.89
2016-09-28T12:24:25.484Z,58.98
2016-09-28T12:25:25.260Z,58.6
2016-09-28T12:26:25.242Z,58.89
2016-09-28T12:27:25.633Z,58.98
2016-09-28T12:28:25.148Z,58.21
2016-09-28T12:29:25.218Z,57.92
2016-09-28T12:30:25.548Z,57.73
2016-09-28T12:32:48.271Z,58.8
2016-09-28T12:33:48.441Z,58.7
2016-09-28T12:34:48.229Z,58.4
2016-09-28T12:36:03.626Z,58.02
2016-09-28T12:37:02.936Z,57.73
2016-09-28T12:39:04.494Z,57.73
2016-09-28T12:40:02.910Z,57.15
2016-09-28T12:40:49.423Z,57.46
2016-09-28T12:42:48.286Z,56.7
2016-09-28T12:43:48.382Z,56.4
2016-09-28T12:44:48.079Z,56.3
2016-09-28T12:49:36.348Z,56.4
2016-09-28T12:51:45.028Z,56.6
2016-09-28T12:52:37.196Z,56.6
2016-09-28T12:53:37.195Z,56.79
2016-09-28T12:54:37.176Z,55.46
2016-09-28T12:55:37.127Z,56.21
2016-09-28T12:56:37.161Z,55.36
2016-09-28T12:57:37.150Z,56.07
2016-09-28T12:58:37.463Z,55.68
2016-09-28T12:59:37.027Z,56.16
2016-09-28T13:00:36.997Z,55.88
2016-09-28T13:01:36.968Z,55.22
2016-09-28T13:02:36.948Z,55.04
2016-09-28T13:03:36.952Z,54.94
2016-09-28T13:04:36.905Z,54.38
2016-09-28T13:05:37.001Z,53.7
2016-09-28T13:06:37.426Z,52.86
2016-09-28T13:07:51.551Z,53.15
2016-09-28T13:08:36.867Z,53.15
2016-09-28T13:09:36.805Z,53.24
2016-09-28T13:10:36.799Z,53.15
2016-09-28T13:11:36.894Z,53.24
2016-09-28T13:12:36.696Z,52.86
2016-09-28T13:13:36.707Z,51.91
2016-09-28T13:14:36.695Z,52.01
2016-09-28T13:15:36.702Z,51.72
2016-09-28T13:16:36.616Z,52.4
2016-09-28T13:17:36.600Z,52.37
2016-09-28T13:18:36.563Z,52.47
2016-09-28T13:19:36.543Z,52.56
2016-09-28T13:20:36.717Z,53.02
2016-09-28T13:21:37.101Z,52.66
2016-09-28T13:22:37.089Z,52.76
2016-09-28T13:23:36.459Z,53.12
2016-09-28T13:24:36.432Z,52.83
2016-09-28T13:25:36.394Z,52.73
2016-09-28T13:26:36.491Z,52.54
2016-09-28T13:27:36.363Z,52.64
2016-09-28T13:28:51.254Z,53.02
2016-09-28T13:29:36.282Z,53.39
2016-09-28T13:34:22.647Z,54.43
2016-09-28T13:35:22.634Z,54.43
2016-09-28T13:36:23.083Z,54.98
2016-09-28T13:37:23.103Z,54.49
2016-09-28T13:38:22.603Z,54.43
2016-09-28T13:39:37.503Z,54.33
2016-09-28T13:40:23.256Z,54.23
2016-09-28T13:41:22.827Z,53.85